Time;durP1;ratioP1;P1;durP2;ratioP2;P2;SDS_P1;SDS_P2;PMS_P1;PMS_P2;Temp;Humidity;BMP_temperature;BMP_pressure;BME280_temperature;BME280_humidity;BME280_pressure;Samples;Min_cycle;Max_cycle;Signal;HPM_P1;HPM_P2
2023/12/20 00:00:20;;;;;;;15.70;5.23;;;7.40;99.90;;;;;;5033288;28;20482;-52
2023/12/20 00:02:46;;;;;;;13.93;5.13;;;7.30;99.90;;;;;;5033226;28;20079;-51
2023/12/20 00:05:13;;;;;;;16.20;4.63;;;7.30;99.90;;;;;;5033323;28;20057;-51
2023/12/20 00:07:39;;;;;;;13.40;4.57;;;7.30;99.90;;;;;;5033066;28;20025;-54
2023/12/20 00:10:05;;;;;;;15.53;5.77;;;7.30;99.90;;;;;;5033158;28;20398;-54
2023/12/20 00:12:31;;;;;;;18.57;5.17;;;7.30;99.90;;;;;;5033455;28;20033;-52
2023/12/20 00:14:56;;;;;;;14.63;4.90;;;7.40;99.90;;;;;;5033049;28;20436;-52
2023/12/20 00:17:22;;;;;;;13.00;4.73;;;7.30;99.90;;;;;;5032823;28;20041;-55
2023/12/20 00:19:47;;;;;;;15.93;5.07;;;7.20;99.90;;;;;;5033014;28;20029;-55
2023/12/20 00:22:13;;;;;;;15.80;5.97;;;7.20;99.90;;;;;;5032796;28;20067;-55
2023/12/20 00:24:39;;;;;;;16.10;5.20;;;7.10;99.90;;;;;;5032890;28;20036;-55
2023/12/20 00:27:04;;;;;;;12.47;4.80;;;7.00;99.90;;;;;;5032996;28;20102;-51
2023/12/20 00:29:30;;;;;;;17.90;5.97;;;6.90;99.90;;;;;;5032616;28;20442;-54
2023/12/20 00:31:55;;;;;;;11.53;4.93;;;6.90;99.90;;;;;;5033125;28;20033;-54
2023/12/20 00:34:21;;;;;;;18.00;4.90;;;6.90;99.90;;;;;;5032753;28;20670;-55
2023/12/20 00:36:47;;;;;;;14.80;4.50;;;6.90;99.90;;;;;;5032666;28;20033;-55
2023/12/20 00:39:12;;;;;;;15.43;4.93;;;6.80;99.90;;;;;;5032412;28;20051;-50
2023/12/20 00:41:38;;;;;;;13.33;4.23;;;6.80;99.90;;;;;;5031598;28;20557;-53
2023/12/20 00:44:04;;;;;;;18.10;4.50;;;6.80;99.90;;;;;;5032603;28;20694;-53
2023/12/20 00:46:29;;;;;;;13.13;3.87;;;6.80;99.90;;;;;;5032478;28;20040;-51
2023/12/20 00:48:55;;;;;;;13.67;4.80;;;6.80;99.90;;;;;;5032303;28;20029;-54
2023/12/20 00:51:22;;;;;;;12.53;4.70;;;6.80;99.90;;;;;;5032304;28;20033;-50
2023/12/20 00:53:49;;;;;;;14.63;4.60;;;6.80;99.90;;;;;;5032335;28;20044;-52
2023/12/20 00:56:14;;;;;;;14.20;4.40;;;6.80;99.90;;;;;;5014986;28;20440;-54
2023/12/20 00:58:40;;;;;;;13.47;4.57;;;6.80;99.90;;;;;;5032006;28;20033;-55
2023/12/20 01:01:06;;;;;;;11.20;4.07;;;6.80;99.90;;;;;;5014508;28;20037;-55
2023/12/20 01:03:31;;;;;;;13.50;4.70;;;6.90;99.90;;;;;;5032259;28;20022;-54
2023/12/20 01:05:57;;;;;;;12.03;4.13;;;7.00;99.90;;;;;;5032168;28;20041;-53
2023/12/20 01:08:22;;;;;;;12.90;5.30;;;7.00;99.90;;;;;;5031925;28;20029;-55
2023/12/20 01:10:48;;;;;;;10.90;4.70;;;7.00;99.90;;;;;;5031980;28;20033;-55
2023/12/20 01:13:14;;;;;;;13.47;4.90;;;7.00;99.90;;;;;;5031980;28;20489;-54
2023/12/20 01:15:39;;;;;;;13.30;4.20;;;7.00;99.90;;;;;;5031985;28;20029;-55
2023/12/20 01:18:05;;;;;;;15.13;5.17;;;7.10;99.90;;;;;;5031782;28;20028;-53
2023/12/20 01:20:31;;;;;;;13.37;4.83;;;7.00;99.90;;;;;;5031735;28;20037;-55
2023/12/20 01:22:56;;;;;;;12.43;5.30;;;7.10;99.90;;;;;;5032026;28;20029;-55
2023/12/20 01:25:22;;;;;;;17.53;5.30;;;7.10;99.90;;;;;;5031957;28;20060;-55
2023/12/20 01:27:47;;;;;;;14.00;5.60;;;7.10;99.90;;;;;;5031694;28;20026;-55
2023/12/20 01:30:14;;;;;;;15.57;4.70;;;7.10;99.90;;;;;;5031693;28;20036;-52
2023/12/20 01:32:40;;;;;;;12.53;5.10;;;7.10;99.90;;;;;;5031741;28;20041;-55
2023/12/20 01:35:06;;;;;;;15.10;5.23;;;7.10;99.90;;;;;;5031784;28;20029;-55
2023/12/20 01:37:31;;;;;;;12.00;4.97;;;7.00;99.90;;;;;;5031705;28;20037;-54
2023/12/20 01:39:58;;;;;;;15.00;4.60;;;7.00;99.90;;;;;;5031450;28;20083;-54
2023/12/20 01:42:24;;;;;;;14.67;4.30;;;6.90;99.90;;;;;;5031732;28;20099;-55
2023/12/20 01:44:49;;;;;;;14.70;4.57;;;6.90;99.90;;;;;;5031706;28;20410;-55
2023/12/20 01:47:16;;;;;;;13.73;4.57;;;6.90;99.90;;;;;;5031982;28;20013;-55
2023/12/20 01:49:41;;;;;;;11.10;4.57;;;6.80;99.90;;;;;;5031551;28;20033;-55
2023/12/20 01:52:08;;;;;;;12.13;4.33;;;6.80;99.90;;;;;;5031547;28;20402;-54
2023/12/20 01:54:35;;;;;;;9.60;4.20;;;6.70;99.90;;;;;;5034866;28;20064;-54
2023/12/20 01:57:01;;;;;;;10.13;4.30;;;6.70;99.90;;;;;;5035514;28;20038;-55
2023/12/20 01:59:28;;;;;;;15.57;4.53;;;6.70;99.90;;;;;;5035486;28;20033;-52
2023/12/20 02:01:54;;;;;;;9.87;4.03;;;6.60;99.90;;;;;;5035473;28;20033;-55
2023/12/20 02:04:20;;;;;;;10.07;4.40;;;6.60;99.90;;;;;;5035424;28;20493;-55
2023/12/20 02:06:46;;;;;;;12.87;3.93;;;6.50;99.90;;;;;;5035284;28;20034;-52
2023/12/20 02:09:12;;;;;;;14.63;4.80;;;6.40;99.90;;;;;;5035253;28;20033;-54
2023/12/20 02:11:38;;;;;;;13.30;4.27;;;6.40;99.90;;;;;;5035339;28;20029;-55
2023/12/20 02:14:03;;;;;;;11.97;4.70;;;6.40;99.90;;;;;;5035332;28;20036;-55
2023/12/20 02:16:29;;;;;;;13.20;4.47;;;6.40;99.90;;;;;;5035296;28;20116;-54
2023/12/20 02:18:55;;;;;;;11.37;4.93;;;6.40;99.90;;;;;;5034855;28;20057;-53
2023/12/20 02:21:40;;;;;;;11.67;4.53;;;6.40;99.90;;;;;;5035177;28;20075;-53
2023/12/20 02:24:06;;;;;;;12.87;4.53;;;6.40;99.90;;;;;;5034781;28;20049;-54
2023/12/20 02:26:33;;;;;;;8.90;4.03;;;6.40;99.90;;;;;;5035072;28;20037;-54
2023/12/20 02:28:59;;;;;;;10.33;3.80;;;6.40;99.90;;;;;;5034864;28;20047;-54
2023/12/20 02:31:24;;;;;;;12.70;3.43;;;6.50;99.90;;;;;;5034997;28;20482;-55
2023/12/20 02:33:50;;;;;;;10.50;5.00;;;6.50;99.90;;;;;;5034843;28;20094;-52
2023/12/20 02:36:16;;;;;;;9.00;3.80;;;6.40;99.90;;;;;;5035060;28;20441;-52
2023/12/20 02:38:41;;;;;;;9.83;3.53;;;6.40;99.90;;;;;;5034610;28;20026;-54
2023/12/20 02:41:07;;;;;;;12.20;4.30;;;6.30;99.90;;;;;;5034679;28;20030;-52
2023/12/20 02:43:32;;;;;;;13.57;4.53;;;6.30;99.90;;;;;;5035002;28;20025;-51
2023/12/20 02:45:58;;;;;;;14.03;4.23;;;6.20;99.90;;;;;;5034811;28;20033;-53
2023/12/20 02:48:23;;;;;;;16.73;3.77;;;6.10;99.90;;;;;;5034473;28;20478;-55
2023/12/20 02:50:49;;;;;;;11.47;3.63;;;6.10;99.90;;;;;;5034531;28;20022;-51
2023/12/20 02:53:15;;;;;;;14.27;3.77;;;6.10;99.90;;;;;;5034696;28;20041;-51
2023/12/20 02:55:40;;;;;;;10.43;3.63;;;6.00;99.90;;;;;;5034485;28;20025;-54
2023/12/20 02:58:06;;;;;;;9.93;3.23;;;6.00;99.90;;;;;;5034457;28;20482;-52
2023/12/20 03:00:31;;;;;;;11.20;3.47;;;6.00;99.90;;;;;;5034256;28;20108;-55
2023/12/20 03:02:59;;;;;;;11.30;3.50;;;6.00;99.90;;;;;;5034354;28;20048;-54
2023/12/20 03:05:25;;;;;;;14.50;3.70;;;5.90;99.90;;;;;;5033356;28;20037;-55
2023/12/20 03:07:51;;;;;;;9.67;3.40;;;5.90;99.90;;;;;;5034161;28;20051;-55
2023/12/20 03:10:18;;;;;;;12.23;3.57;;;5.90;99.90;;;;;;5034267;28;20037;-54
2023/12/20 03:12:44;;;;;;;12.07;3.00;;;5.90;99.90;;;;;;5034168;28;20037;-55
2023/12/20 03:15:10;;;;;;;10.60;2.57;;;5.90;99.90;;;;;;5034234;28;20037;-55
2023/12/20 03:17:35;;;;;;;8.53;2.90;;;5.90;99.90;;;;;;5033898;28;20068;-52
2023/12/20 03:20:01;;;;;;;6.87;2.37;;;5.80;99.90;;;;;;5034000;28;20069;-51
2023/12/20 03:22:27;;;;;;;11.23;3.53;;;5.80;99.90;;;;;;5033979;28;20040;-54
2023/12/20 03:24:52;;;;;;;10.27;3.43;;;5.90;99.90;;;;;;5034119;28;20030;-53
2023/12/20 03:27:18;;;;;;;6.60;2.00;;;5.90;99.90;;;;;;5033830;28;20466;-52
2023/12/20 03:29:43;;;;;;;8.37;1.77;;;5.90;99.90;;;;;;5033852;28;20113;-55
2023/12/20 03:32:09;;;;;;;6.90;2.23;;;5.90;99.90;;;;;;5033822;28;20029;-51
2023/12/20 03:34:35;;;;;;;5.07;1.50;;;6.00;99.90;;;;;;5033830;28;20481;-55
2023/12/20 03:37:00;;;;;;;7.00;1.70;;;6.00;99.90;;;;;;5033735;28;20122;-51
2023/12/20 03:39:26;;;;;;;8.00;1.80;;;6.00;99.90;;;;;;5033452;28;20170;-55
2023/12/20 03:41:51;;;;;;;5.57;2.23;;;6.00;99.90;;;;;;5033597;28;20036;-53
2023/12/20 03:44:17;;;;;;;8.57;2.13;;;6.00;99.90;;;;;;5033615;28;20033;-53
2023/12/20 03:46:42;;;;;;;11.00;1.93;;;5.90;99.90;;;;;;5033474;28;20104;-53
2023/12/20 03:49:08;;;;;;;11.23;2.10;;;6.00;99.90;;;;;;5033528;28;20569;-55
2023/12/20 03:51:34;;;;;;;8.50;1.57;;;5.90;99.90;;;;;;5033469;28;20040;-54
2023/12/20 03:53:59;;;;;;;10.93;1.93;;;6.00;99.90;;;;;;5033438;28;20226;-55
2023/12/20 03:56:25;;;;;;;6.63;1.60;;;6.00;99.90;;;;;;5033383;28;20040;-52
2023/12/20 03:58:50;;;;;;;7.10;1.73;;;5.90;99.90;;;;;;5033127;28;20034;-50
2023/12/20 04:01:16;;;;;;;4.63;1.57;;;5.90;99.90;;;;;;5033260;28;20032;-54
2023/12/20 04:03:41;;;;;;;9.50;1.47;;;5.90;99.90;;;;;;5033396;28;20429;-55
2023/12/20 04:06:07;;;;;;;3.30;1.20;;;5.80;99.90;;;;;;5033290;28;20478;-54
2023/12/20 04:08:33;;;;;;;5.57;1.70;;;5.80;99.90;;;;;;5032878;28;20071;-54
2023/12/20 04:10:58;;;;;;;7.17;1.50;;;5.70;99.90;;;;;;5033126;28;20022;-54
2023/12/20 04:13:24;;;;;;;7.00;1.90;;;5.80;99.90;;;;;;5033118;28;20023;-51
2023/12/20 04:15:50;;;;;;;9.23;1.83;;;5.80;99.90;;;;;;5032918;28;20037;-55
2023/12/20 04:18:16;;;;;;;8.47;1.80;;;5.80;99.90;;;;;;5032785;28;20037;-52
2023/12/20 04:20:42;;;;;;;7.60;1.67;;;5.80;99.90;;;;;;5032866;28;20029;-52
2023/12/20 04:23:07;;;;;;;13.97;1.93;;;5.70;99.90;;;;;;5032881;28;20033;-51
2023/12/20 04:25:34;;;;;;;6.60;1.80;;;5.60;99.90;;;;;;5033001;28;20051;-55
2023/12/20 04:27:59;;;;;;;8.83;1.80;;;5.70;99.90;;;;;;5032675;28;20115;-52
2023/12/20 04:30:25;;;;;;;9.90;2.03;;;5.70;99.90;;;;;;5032683;28;20032;-55
2023/12/20 04:32:50;;;;;;;9.33;1.93;;;5.80;99.90;;;;;;5032613;28;20029;-52
2023/12/20 04:35:16;;;;;;;5.93;1.90;;;5.70;99.90;;;;;;5032736;28;20025;-54
2023/12/20 04:37:42;;;;;;;8.00;2.00;;;5.70;99.90;;;;;;5032384;28;20037;-53
2023/12/20 04:40:08;;;;;;;12.63;1.70;;;5.70;99.90;;;;;;5032508;28;20043;-52
2023/12/20 04:42:33;;;;;;;11.97;2.50;;;5.70;99.90;;;;;;5032469;28;20541;-54
2023/12/20 04:44:59;;;;;;;10.13;2.30;;;5.90;99.90;;;;;;5032567;28;20113;-54
2023/12/20 04:47:25;;;;;;;12.20;2.53;;;5.90;99.90;;;;;;5014641;28;20070;-55
2023/12/20 04:49:50;;;;;;;7.17;2.70;;;5.90;99.90;;;;;;5032342;28;20028;-53
2023/12/20 04:52:16;;;;;;;6.40;2.00;;;5.90;99.90;;;;;;5032387;28;20044;-52
2023/12/20 04:54:41;;;;;;;11.23;2.33;;;5.90;99.90;;;;;;5032351;28;20037;-51
2023/12/20 04:57:07;;;;;;;12.30;2.83;;;5.90;99.90;;;;;;5032201;28;20026;-53
2023/12/20 04:59:33;;;;;;;6.40;2.40;;;5.90;99.90;;;;;;5032037;28;20496;-55
2023/12/20 05:01:58;;;;;;;7.50;2.50;;;5.90;99.90;;;;;;5032166;28;20071;-54
2023/12/20 05:04:24;;;;;;;8.50;2.67;;;5.80;99.90;;;;;;5032230;28;20032;-54
2023/12/20 05:06:50;;;;;;;6.37;2.80;;;5.80;99.90;;;;;;5032004;28;20474;-50
2023/12/20 05:09:16;;;;;;;13.67;3.57;;;5.80;99.90;;;;;;5032264;28;20082;-54
2023/12/20 05:11:41;;;;;;;11.00;3.23;;;5.80;99.90;;;;;;5032051;28;20453;-55
2023/12/20 05:14:07;;;;;;;10.30;2.50;;;5.70;99.90;;;;;;5031960;28;20033;-52
2023/12/20 05:16:32;;;;;;;9.93;2.27;;;5.70;99.90;;;;;;5031968;28;20233;-53
2023/12/20 05:19:00;;;;;;;9.97;3.40;;;5.60;99.90;;;;;;5031592;28;20021;-54
2023/12/20 05:21:26;;;;;;;9.43;3.20;;;5.60;99.90;;;;;;5031792;28;20402;-53
2023/12/20 05:23:52;;;;;;;8.03;3.07;;;5.50;99.90;;;;;;5031927;28;20025;-54
2023/12/20 05:26:18;;;;;;;13.53;2.80;;;5.60;99.90;;;;;;5031858;28;20026;-54
2023/12/20 05:28:44;;;;;;;14.67;4.43;;;5.60;99.90;;;;;;5031175;28;20364;-55
2023/12/20 05:31:09;;;;;;;11.10;2.47;;;5.70;99.90;;;;;;5031831;28;20033;-53
2023/12/20 05:33:35;;;;;;;8.60;3.33;;;5.70;99.90;;;;;;5031886;28;20055;-55
2023/12/20 05:36:00;;;;;;;12.27;2.73;;;5.80;99.90;;;;;;5031879;28;20112;-53
2023/12/20 05:38:26;;;;;;;9.03;2.60;;;5.80;99.90;;;;;;5031501;28;20086;-55
2023/12/20 05:40:52;;;;;;;10.00;3.67;;;5.80;99.90;;;;;;5031664;28;20056;-53
2023/12/20 05:43:17;;;;;;;8.77;2.80;;;5.80;99.90;;;;;;5031768;28;20036;-51
2023/12/20 05:45:43;;;;;;;8.53;2.87;;;5.80;99.90;;;;;;5031624;28;20481;-53
2023/12/20 05:48:08;;;;;;;8.20;3.03;;;5.80;99.90;;;;;;5031582;28;20033;-55
2023/12/20 05:50:34;;;;;;;12.17;2.83;;;5.80;99.90;;;;;;5031524;28;20034;-54
2023/12/20 05:53:00;;;;;;;9.33;2.73;;;5.80;99.90;;;;;;5031620;28;20117;-54
2023/12/20 05:55:26;;;;;;;12.07;3.23;;;5.90;99.90;;;;;;5031619;28;20057;-54
2023/12/20 05:57:52;;;;;;;15.47;3.93;;;6.00;99.90;;;;;;5031460;28;20412;-55
2023/12/20 06:00:18;;;;;;;11.67;3.43;;;5.90;99.90;;;;;;5031479;28;20029;-55
2023/12/20 06:02:43;;;;;;;8.87;2.90;;;6.00;99.90;;;;;;5031457;28;20048;-55
2023/12/20 06:05:09;;;;;;;8.93;2.73;;;6.00;99.90;;;;;;5031511;28;20071;-55
2023/12/20 06:07:34;;;;;;;13.27;2.70;;;6.00;99.90;;;;;;5031235;28;20117;-54
2023/12/20 06:10:00;;;;;;;13.63;3.50;;;6.00;99.90;;;;;;5031490;28;20038;-54
2023/12/20 06:12:27;;;;;;;8.20;3.10;;;6.00;99.90;;;;;;5031460;28;20386;-55
2023/12/20 06:14:52;;;;;;;11.07;2.77;;;6.10;99.90;;;;;;5031385;28;20474;-54
2023/12/20 06:17:18;;;;;;;11.97;3.27;;;6.10;99.90;;;;;;5031351;28;20040;-54
2023/12/20 06:19:47;;;;;;;6.07;2.50;;;6.10;99.90;;;;;;5031032;28;20032;-55
2023/12/20 06:22:14;;;;;;;10.07;3.70;;;6.20;99.90;;;;;;5031354;28;20037;-54
2023/12/20 06:24:39;;;;;;;13.33;2.90;;;6.10;99.90;;;;;;5031369;28;20056;-54
2023/12/20 06:27:05;;;;;;;12.53;3.23;;;6.20;99.90;;;;;;5031265;28;20018;-54
2023/12/20 06:29:31;;;;;;;9.20;3.17;;;6.20;99.90;;;;;;5031126;28;20474;-54
2023/12/20 06:31:56;;;;;;;17.90;3.17;;;6.20;99.90;;;;;;5013687;28;20037;-54
2023/12/20 06:34:22;;;;;;;12.73;2.80;;;6.20;99.90;;;;;;5031260;28;20029;-53
2023/12/20 06:36:48;;;;;;;15.00;3.60;;;6.20;99.90;;;;;;5031125;28;20033;-53
2023/12/20 06:39:14;;;;;;;10.70;2.40;;;6.30;99.90;;;;;;5031937;28;20041;-55
2023/12/20 06:41:39;;;;;;;12.47;3.43;;;6.30;99.90;;;;;;5034731;28;20161;-54
2023/12/20 06:44:05;;;;;;;14.70;2.50;;;6.30;99.90;;;;;;5034925;28;20021;-55
2023/12/20 06:46:31;;;;;;;16.27;3.90;;;6.30;99.90;;;;;;5034734;28;20028;-53
2023/12/20 06:48:56;;;;;;;16.77;3.50;;;6.20;99.90;;;;;;5034386;28;20036;-55
2023/12/20 06:51:25;;;;;;;18.90;3.27;;;6.30;99.90;;;;;;5034780;28;20029;-54
2023/12/20 06:53:51;;;;;;;8.43;2.67;;;6.30;99.90;;;;;;5034490;28;20044;-55
2023/12/20 06:56:17;;;;;;;9.03;3.03;;;6.30;99.90;;;;;;5034617;28;20030;-56
2023/12/20 06:58:43;;;;;;;13.87;3.10;;;6.40;99.90;;;;;;5034056;28;20037;-55
2023/12/20 07:01:15;;;;;;;10.40;3.13;;;6.40;99.90;;;;;;5034348;28;20087;-51
2023/12/20 07:03:41;;;;;;;10.80;3.37;;;6.40;99.90;;;;;;5034253;28;20029;-53
2023/12/20 07:06:07;;;;;;;14.60;2.70;;;6.40;99.90;;;;;;5034407;28;20115;-55
2023/12/20 07:08:32;;;;;;;6.70;2.57;;;6.40;99.90;;;;;;5034154;28;20458;-57
2023/12/20 07:10:58;;;;;;;11.40;2.47;;;6.50;99.90;;;;;;5034261;28;20033;-55
2023/12/20 07:13:24;;;;;;;9.00;2.70;;;6.50;99.90;;;;;;5034198;28;20025;-54
2023/12/20 07:15:50;;;;;;;13.73;3.03;;;6.40;99.90;;;;;;5016557;28;20041;-56
2023/12/20 07:18:16;;;;;;;9.00;2.30;;;6.50;99.90;;;;;;5033934;28;20033;-56
2023/12/20 07:20:43;;;;;;;9.93;2.83;;;6.50;99.90;;;;;;5033804;28;20037;-54
2023/12/20 07:23:08;;;;;;;9.47;2.70;;;6.50;99.90;;;;;;5034111;28;20057;-54
2023/12/20 07:25:34;;;;;;;7.63;2.77;;;6.50;99.90;;;;;;5033922;28;20056;-54
2023/12/20 07:28:00;;;;;;;9.03;2.40;;;6.50;99.90;;;;;;5033845;28;20033;-55
2023/12/20 07:30:25;;;;;;;14.07;3.10;;;6.50;99.90;;;;;;5033821;28;20029;-55
2023/12/20 07:32:52;;;;;;;13.03;2.53;;;6.50;99.90;;;;;;5033686;28;20086;-54
2023/12/20 07:35:18;;;;;;;15.83;3.33;;;6.50;99.90;;;;;;5033849;28;20455;-55
2023/12/20 07:37:44;;;;;;;10.10;3.00;;;6.60;99.90;;;;;;5033606;28;20104;-52
2023/12/20 07:40:10;;;;;;;5.70;1.70;;;6.60;99.90;;;;;;5033534;28;20512;-52
2023/12/20 07:42:35;;;;;;;11.97;2.80;;;6.60;99.90;;;;;;5033555;28;20028;-53
2023/12/20 07:45:01;;;;;;;10.87;3.17;;;6.60;99.90;;;;;;5033657;28;20558;-53
2023/12/20 07:47:27;;;;;;;15.67;2.50;;;6.70;99.90;;;;;;5033511;28;20029;-55
2023/12/20 07:49:52;;;;;;;7.93;2.60;;;6.70;99.90;;;;;;5033404;28;20405;-54
2023/12/20 07:52:18;;;;;;;12.03;2.77;;;6.70;99.90;;;;;;5032940;28;20033;-53
2023/12/20 07:54:45;;;;;;;13.13;2.50;;;6.70;99.90;;;;;;5033472;28;20414;-53
2023/12/20 07:57:11;;;;;;;7.67;2.43;;;6.70;99.90;;;;;;5033263;28;20178;-54
2023/12/20 07:59:37;;;;;;;15.63;3.53;;;6.70;99.90;;;;;;5033044;28;20110;-55
2023/12/20 08:02:03;;;;;;;9.87;3.27;;;6.70;99.90;;;;;;5033324;28;20092;-52
2023/12/20 08:04:28;;;;;;;10.73;2.97;;;6.70;99.90;;;;;;5033362;28;20040;-55
2023/12/20 08:06:55;;;;;;;11.93;2.57;;;6.80;99.90;;;;;;5033094;28;20462;-54
2023/12/20 08:09:21;;;;;;;15.80;3.97;;;6.80;99.90;;;;;;5033078;28;20033;-54
2023/12/20 08:11:49;;;;;;;9.90;3.23;;;6.80;99.90;;;;;;5015194;28;20482;-53
2023/12/20 08:14:16;;;;;;;5.78;2.45;;;6.70;99.90;;;;;;5033063;28;20040;-54
2023/12/20 08:16:41;;;;;;;12.97;3.73;;;6.80;99.90;;;;;;5033079;28;20033;-55
2023/12/20 08:19:07;;;;;;;10.93;2.90;;;6.80;99.90;;;;;;5032891;28;20121;-55
2023/12/20 08:21:33;;;;;;;13.07;3.10;;;6.80;99.90;;;;;;5032910;28;20364;-51
2023/12/20 08:24:00;;;;;;;12.17;3.53;;;6.80;99.90;;;;;;5032846;28;20050;-53
2023/12/20 08:26:26;;;;;;;8.03;3.07;;;6.70;99.90;;;;;;5032819;28;20072;-55
2023/12/20 08:28:51;;;;;;;13.70;3.00;;;6.80;99.90;;;;;;5032484;28;20056;-55
2023/12/20 08:31:18;;;;;;;16.43;3.30;;;6.80;99.90;;;;;;5032781;28;20033;-51
2023/12/20 08:33:45;;;;;;;9.87;3.00;;;6.80;99.90;;;;;;5032755;28;20524;-54
2023/12/20 08:36:11;;;;;;;12.90;3.13;;;6.80;99.90;;;;;;5032870;28;20445;-51
2023/12/20 08:38:36;;;;;;;11.67;3.03;;;6.80;99.90;;;;;;5032245;28;20091;-54
2023/12/20 08:41:04;;;;;;;10.90;2.93;;;6.80;99.90;;;;;;5056854;22;20052;-54
2023/12/20 08:43:33;;;;;;;10.47;3.80;;;6.80;99.90;;;;;;5052423;28;20028;-51
2023/12/20 08:45:59;;;;;;;10.20;2.58;;;6.80;99.90;;;;;;5052500;28;20028;-51
2023/12/20 08:48:25;;;;;;;8.87;2.23;;;6.80;99.90;;;;;;5052241;28;20032;-52
2023/12/20 08:50:52;;;;;;;8.47;2.07;;;6.80;99.90;;;;;;5052257;28;20078;-53
2023/12/20 08:53:18;;;;;;;11.17;2.50;;;6.80;99.90;;;;;;5052420;28;20418;-51
2023/12/20 08:55:44;;;;;;;9.60;2.43;;;6.80;99.90;;;;;;5052193;28;20028;-52
2023/12/20 08:58:10;;;;;;;9.93;2.73;;;6.80;99.90;;;;;;5051961;28;20162;-52
2023/12/20 09:00:35;;;;;;;5.53;1.80;;;6.80;99.90;;;;;;5051945;28;20401;-54
2023/12/20 09:03:02;;;;;;;9.13;2.30;;;6.80;99.90;;;;;;5051291;28;20032;-52
2023/12/20 09:05:28;;;;;;;9.17;2.47;;;6.80;99.90;;;;;;5052401;28;20064;-54
2023/12/20 09:07:54;;;;;;;10.17;2.53;;;6.80;99.90;;;;;;5051830;28;20434;-52
2023/12/20 09:10:22;;;;;;;13.57;2.23;;;6.80;99.90;;;;;;5051895;28;20040;-52
2023/12/20 09:12:54;;;;;;;11.30;2.67;;;6.80;99.90;;;;;;5051956;28;20493;-55
2023/12/20 09:15:19;;;;;;;4.00;1.57;;;6.80;99.90;;;;;;5052091;28;20033;-55
2023/12/20 09:17:45;;;;;;;11.13;2.13;;;6.80;99.90;;;;;;5051915;28;20075;-53
2023/12/20 09:20:11;;;;;;;8.83;2.00;;;6.80;99.90;;;;;;5051820;28;20501;-53
2023/12/20 09:22:38;;;;;;;8.80;2.40;;;6.80;99.90;;;;;;5051820;28;20508;-52
2023/12/20 09:25:04;;;;;;;13.73;2.93;;;6.80;99.90;;;;;;5051722;28;20043;-57
2023/12/20 09:27:30;;;;;;;7.20;2.00;;;6.90;99.90;;;;;;5051774;28;20492;-54
2023/12/20 09:29:55;;;;;;;8.27;2.70;;;6.90;99.90;;;;;;5051704;28;20033;-55
2023/12/20 09:32:21;;;;;;;7.70;2.10;;;6.90;99.90;;;;;;5051745;28;20055;-56
2023/12/20 09:34:47;;;;;;;10.80;2.60;;;6.90;99.90;;;;;;5051726;28;20478;-53
2023/12/20 09:37:13;;;;;;;4.87;1.73;;;6.90;99.90;;;;;;5051566;28;20036;-56
2023/12/20 09:39:39;;;;;;;5.50;1.90;;;6.90;99.90;;;;;;5033609;28;20040;-52
2023/12/20 09:42:06;;;;;;;12.93;2.60;;;6.90;99.90;;;;;;5033687;28;20040;-56
2023/12/20 09:44:36;;;;;;;6.63;2.10;;;6.80;99.90;;;;;;5051652;28;20025;-54
2023/12/20 09:47:06;;;;;;;10.13;2.10;;;6.80;99.90;;;;;;5052040;28;20039;-51
2023/12/20 09:49:33;;;;;;;8.27;2.30;;;6.90;99.90;;;;;;5051527;28;20171;-55
2023/12/20 09:52:01;;;;;;;8.13;2.70;;;6.90;99.90;;;;;;5051477;28;20032;-54
2023/12/20 09:54:28;;;;;;;10.10;2.67;;;6.90;99.90;;;;;;5051524;28;20114;-55
2023/12/20 09:56:54;;;;;;;11.47;2.13;;;6.90;99.90;;;;;;5051432;28;20033;-54
2023/12/20 09:59:19;;;;;;;10.67;2.47;;;7.00;99.90;;;;;;5033458;28;20493;-54
2023/12/20 10:01:45;;;;;;;10.30;2.73;;;7.00;99.90;;;;;;5051552;28;20393;-53
2023/12/20 10:04:12;;;;;;;12.83;2.40;;;7.00;99.90;;;;;;5051479;28;20123;-52
2023/12/20 10:06:42;;;;;;;5.93;1.97;;;7.00;99.90;;;;;;5051479;28;20029;-55
2023/12/20 10:09:11;;;;;;;6.07;2.53;;;7.00;99.90;;;;;;5051326;28;20035;-57
2023/12/20 10:11:38;;;;;;;7.15;2.08;;;7.00;99.90;;;;;;5033597;28;20072;-56
2023/12/20 10:14:04;;;;;;;7.23;1.63;;;7.00;99.90;;;;;;5052132;28;20049;-57
2023/12/20 10:16:31;;;;;;;8.57;2.10;;;7.10;99.90;;;;;;5055352;28;20543;-57
2023/12/20 10:18:56;;;;;;;9.07;2.07;;;7.10;99.90;;;;;;5054887;28;20120;-52
2023/12/20 10:21:24;;;;;;;14.23;2.67;;;7.20;99.90;;;;;;5055100;28;20083;-55
2023/12/20 10:23:50;;;;;;;12.87;1.73;;;7.20;99.90;;;;;;5055154;28;20025;-55
2023/12/20 10:26:26;;;;;;;9.20;2.83;;;7.20;99.90;;;;;;5055137;28;20101;-53
2023/12/20 10:28:56;;;;;;;6.20;2.30;;;7.30;99.90;;;;;;5055221;28;20428;-57
2023/12/20 10:31:42;;;;;;;7.70;2.30;;;7.30;99.90;;;;;;5054998;28;20033;-52
2023/12/20 10:34:08;;;;;;;7.17;1.97;;;7.30;99.90;;;;;;5054988;28;20036;-54
2023/12/20 10:36:34;;;;;;;9.60;2.70;;;7.30;99.90;;;;;;5054966;28;20120;-53
2023/12/20 10:39:01;;;;;;;10.17;2.30;;;7.40;99.90;;;;;;5054490;28;20037;-52
2023/12/20 10:41:31;;;;;;;12.97;3.30;;;7.30;99.90;;;;;;5054658;28;20057;-53
2023/12/20 10:44:07;;;;;;;10.20;2.07;;;7.40;99.90;;;;;;5054842;28;20067;-54
2023/12/20 10:46:34;;;;;;;9.73;2.33;;;7.40;99.90;;;;;;5054768;28;20033;-53
2023/12/20 10:49:02;;;;;;;12.60;2.50;;;7.30;99.90;;;;;;5054423;28;20494;-55
2023/12/20 10:51:29;;;;;;;7.97;2.23;;;7.30;99.90;;;;;;5054633;28;20037;-55
2023/12/20 10:53:56;;;;;;;4.23;1.77;;;7.30;99.90;;;;;;5054544;28;20037;-55
2023/12/20 10:56:23;;;;;;;13.10;2.73;;;7.30;99.90;;;;;;5054598;28;20075;-54
2023/12/20 10:58:50;;;;;;;6.90;2.27;;;7.40;99.90;;;;;;5054140;28;20033;-53
2023/12/20 11:01:20;;;;;;;9.70;2.50;;;7.30;99.90;;;;;;5054433;28;20032;-55
2023/12/20 11:03:50;;;;;;;9.80;2.50;;;7.40;99.90;;;;;;5054634;28;20032;-57
2023/12/20 11:06:47;;;;;;;8.53;2.50;;;7.40;99.90;;;;;;5054380;28;20402;-55
2023/12/20 11:09:35;;;;;;;11.67;2.03;;;7.40;99.90;;;;;;5054109;28;20055;-56
2023/12/20 11:12:01;;;;;;;17.20;3.87;;;7.40;99.90;;;;;;5036350;28;20153;-53
2023/12/20 11:14:41;;;;;;;5.77;2.67;;;7.40;99.90;;;;;;5036340;28;20115;-52
2023/12/20 11:17:15;;;;;;;10.03;2.10;;;7.40;99.90;;;;;;5054056;28;20064;-54
2023/12/20 11:19:56;;;;;;;5.53;2.23;;;7.40;99.90;;;;;;5036022;28;20037;-52
2023/12/20 11:22:27;;;;;;;9.60;2.20;;;7.40;99.90;;;;;;5054021;28;20029;-54
2023/12/20 11:24:55;;;;;;;8.70;2.53;;;7.50;99.90;;;;;;5036097;28;20565;-57
2023/12/20 11:27:21;;;;;;;12.93;2.53;;;7.50;99.90;;;;;;5053321;28;20037;-54
2023/12/20 11:29:55;;;;;;;9.33;2.17;;;7.60;99.90;;;;;;5053843;28;20561;-56
2023/12/20 11:32:27;;;;;;;7.97;2.27;;;7.70;99.90;;;;;;5053725;28;20041;-55
2023/12/20 11:34:58;;;;;;;11.10;2.53;;;7.80;99.90;;;;;;5035991;28;20033;-53
2023/12/20 11:37:32;;;;;;;9.90;2.00;;;7.80;99.90;;;;;;5053645;28;20037;-55
2023/12/20 11:40:09;;;;;;;9.80;3.03;;;7.80;99.90;;;;;;5053445;28;20069;-57
2023/12/20 11:42:43;;;;;;;6.10;2.43;;;7.80;99.90;;;;;;5053648;28;20033;-55
2023/12/20 11:45:22;;;;;;;7.33;2.23;;;7.80;99.90;;;;;;5035859;28;20021;-51
2023/12/20 11:47:49;;;;;;;7.45;1.90;;;7.80;99.90;;;;;;5053470;28;20111;-53
2023/12/20 11:50:16;;;;;;;14.07;3.20;;;7.70;99.90;;;;;;5053503;28;20033;-52
2023/12/20 11:52:41;;;;;;;7.30;2.63;;;7.70;99.90;;;;;;5053438;28;20078;-54
2023/12/20 11:55:07;;;;;;;11.00;2.60;;;7.60;99.90;;;;;;5053364;28;20386;-56
2023/12/20 11:57:34;;;;;;;12.50;3.17;;;7.60;99.90;;;;;;5035361;28;20040;-53
2023/12/20 11:59:59;;;;;;;6.80;2.63;;;7.50;99.90;;;;;;5053237;28;20085;-55
2023/12/20 12:02:25;;;;;;;9.53;2.63;;;7.50;99.90;;;;;;5053272;28;20115;-54
2023/12/20 12:04:51;;;;;;;9.80;2.60;;;7.40;99.90;;;;;;5053171;28;20029;-53
2023/12/20 12:07:17;;;;;;;9.57;2.40;;;7.40;99.90;;;;;;5053145;28;20033;-53
2023/12/20 12:09:43;;;;;;;9.77;2.90;;;7.40;99.90;;;;;;5052906;28;20041;-53
2023/12/20 12:12:10;;;;;;;4.93;2.10;;;7.40;99.90;;;;;;5053112;28;20393;-55
2023/12/20 12:14:36;;;;;;;7.97;2.40;;;7.50;99.90;;;;;;5053153;28;20029;-52
2023/12/20 12:17:03;;;;;;;6.77;2.07;;;7.50;99.90;;;;;;5052800;28;20029;-51
2023/12/20 12:19:34;;;;;;;11.00;2.30;;;7.50;99.90;;;;;;5052760;28;20047;-54
2023/12/20 12:22:09;;;;;;;11.63;2.67;;;7.50;99.90;;;;;;5052830;28;20116;-50
2023/12/20 12:24:34;;;;;;;10.10;2.57;;;7.50;99.90;;;;;;5052961;28;20104;-51
2023/12/20 12:27:00;;;;;;;12.00;2.43;;;7.50;99.90;;;;;;5052600;28;20550;-54
2023/12/20 12:29:27;;;;;;;12.77;2.60;;;7.50;99.90;;;;;;5052696;28;20413;-54
2023/12/20 12:31:53;;;;;;;14.27;3.13;;;7.60;99.90;;;;;;5052711;28;20032;-55
2023/12/20 12:34:18;;;;;;;8.30;2.40;;;7.60;99.90;;;;;;5052611;28;20082;-51
2023/12/20 12:36:45;;;;;;;16.47;3.30;;;7.70;99.90;;;;;;5052291;28;20029;-54
2023/12/20 12:39:15;;;;;;;7.73;2.10;;;7.80;99.90;;;;;;5052383;28;20033;-53
2023/12/20 12:41:41;;;;;;;11.53;2.33;;;7.80;99.90;;;;;;5052435;28;20036;-51
2023/12/20 12:44:07;;;;;;;8.70;2.27;;;7.80;99.90;;;;;;5052399;28;20083;-54
2023/12/20 12:46:32;;;;;;;28.10;12.50;;;7.70;99.90;;;;;;5052510;28;20037;-54